»·PEaware :: SHOOT18 KLSV-KLSV

SHOOT18 :: KLSV-KLSV

FLIGHT INFORMATION

Flight Status: Arrived
Operator: Unknown
More flights by this operator :: More flights under this callsign
Pilot: Ethan B. (2691)
Aircraft: FAIRCHILD A-10 THUNDERBOLT 2
(A10)
More flights by this aircraft type
Origin: KLSV Nellis AFB
United States
Destination: KLSV Nellis AFB
United States
More flights between these airports :: More routes between these airports
Route: +FYTTR3 FYTTR
File this flight plan on PilotEdge
Remarks:
Altitude:
(Current/Filed)
0ft
Speed:
(Current/Filed)
0kts
Departed: 15-Nov-16 10:35 PM
Arrived: 15-Nov-16 11:09 PM
Distance/Time
Traveled:
1nm/0:34
Distance/Time
To Go:
Arrived

Flight Plot

Page will automatically refresh every two minutes.

Flight plan parsing failed; only flown route is shown


Map Options




Map Legend


Flown Route
Filed Route
Departure Airport
Arrival Airport
Navaid (VOR, NDB)
Fix

Horizontal Profiles

Position Reports

Time Latitude Longitude Heading Altitude Ground
Speed
15-Nov-16 21:48 36.229865 -115.024937 271 1850ft 0kts
15-Nov-16 21:49 36.229865 -115.024937 271 1850ft 0kts
15-Nov-16 21:50 36.229865 -115.024937 271 1850ft 0kts
15-Nov-16 21:51 36.229865 -115.024937 271 1850ft 0kts
15-Nov-16 21:52 36.229865 -115.024937 271 1850ft 0kts
15-Nov-16 21:53 36.229865 -115.024937 271 1850ft 0kts
15-Nov-16 21:54 36.229865 -115.024937 271 1850ft 0kts
15-Nov-16 21:55 36.229865 -115.024937 271 1850ft 0kts
15-Nov-16 21:56 36.229865 -115.024937 271 1850ft 0kts
15-Nov-16 21:57 36.229865 -115.024937 271 1850ft 0kts
15-Nov-16 21:58 36.229865 -115.024937 271 1850ft 0kts
15-Nov-16 21:59 36.229865 -115.024937 271 1850ft 0kts
15-Nov-16 22:00 36.229865 -115.024937 271 1850ft 0kts
15-Nov-16 22:01 36.229865 -115.024937 271 1850ft 0kts
15-Nov-16 22:02 36.229865 -115.024937 271 1850ft 0kts
15-Nov-16 22:03 36.229865 -115.024937 271 1850ft 0kts
15-Nov-16 22:04 36.229865 -115.024937 271 1850ft 0kts
15-Nov-16 22:05 36.229865 -115.024937 271 1850ft 0kts
15-Nov-16 22:06 36.229865 -115.024937 271 1850ft 0kts
15-Nov-16 22:07 36.229865 -115.024937 271 1850ft 0kts
15-Nov-16 22:08 36.229865 -115.024937 271 1850ft 0kts
15-Nov-16 22:09 36.229865 -115.024937 271 1850ft 0kts
15-Nov-16 22:10 36.229865 -115.024937 271 1850ft 0kts
15-Nov-16 22:11 36.229865 -115.024937 271 1850ft 0kts
15-Nov-16 22:12 36.230671 -115.028017 271 1850ft 19kts
15-Nov-16 22:13 36.229202 -115.033295 221 1850ft 21kts
15-Nov-16 22:14 36.225249 -115.037579 222 1849ft 22kts
15-Nov-16 22:15 36.223163 -115.041614 311 1848ft 8kts
15-Nov-16 22:16 36.223675 -115.042364 306 1848ft 0kts
15-Nov-16 22:17 36.223675 -115.042364 306 1848ft 0kts
15-Nov-16 22:18 36.223675 -115.042364 306 1848ft 0kts
15-Nov-16 22:19 36.223675 -115.042364 306 1848ft 0kts
15-Nov-16 22:20 36.223675 -115.042364 306 1848ft 0kts
15-Nov-16 22:21 36.223675 -115.042364 306 1848ft 0kts
15-Nov-16 22:22 36.223675 -115.042364 306 1848ft 0kts
15-Nov-16 22:23 36.223675 -115.042364 306 1848ft 0kts
15-Nov-16 22:24 36.223675 -115.042364 306 1848ft 0kts
15-Nov-16 22:25 36.223675 -115.042364 306 1848ft 0kts
15-Nov-16 22:26 36.223675 -115.042364 306 1848ft 0kts
15-Nov-16 22:27 36.225014 -115.044053 348 1848ft 9kts
15-Nov-16 22:28 36.225589 -115.043601 40 1849ft 0kts
15-Nov-16 22:29 36.251180 -115.016573 39 2131ft 194kts
15-Nov-16 22:30 36.289423 -114.972688 41 5219ft 174kts
15-Nov-16 22:31 36.330523 -114.960040 293 7210ft 195kts
15-Nov-16 22:32 36.308388 -115.015550 226 9696ft 182kts
15-Nov-16 22:33 36.269927 -115.066006 224 11115ft 201kts
15-Nov-16 22:34 36.264908 -115.128381 286 12922ft 206kts
15-Nov-16 22:35 36.277869 -115.199061 281 14518ft 204kts
15-Nov-16 22:36 36.291031 -115.270327 278 15736ft 220kts
15-Nov-16 22:37 36.303978 -115.343945 280 16388ft 220kts
15-Nov-16 22:38 36.318639 -115.416284 291 16928ft 219kts
15-Nov-16 22:39 36.337738 -115.486997 286 18116ft 204kts
15-Nov-16 22:40 36.352581 -115.557383 283 19072ft 214kts
15-Nov-16 22:41 36.372037 -115.630714 286 19966ft 228kts
15-Nov-16 22:42 36.393778 -115.716113 282 19627ft 284kts
15-Nov-16 22:43 36.451040 -115.757713 40 19424ft 301kts
15-Nov-16 22:44 36.472861 -115.652776 89 18349ft 317kts
15-Nov-16 22:45 36.463545 -115.534812 94 15761ft 349kts
15-Nov-16 22:46 36.451161 -115.417935 96 14323ft 330kts
15-Nov-16 22:47 36.440697 -115.306357 96 13527ft 324kts
15-Nov-16 22:48 36.428462 -115.196608 98 13562ft 314kts
15-Nov-16 22:49 36.417695 -115.088775 96 13474ft 316kts
15-Nov-16 22:50 36.407055 -114.980080 93 13466ft 320kts
15-Nov-16 22:51 36.399828 -114.862025 92 10734ft 353kts
15-Nov-16 22:52 36.391951 -114.741413 94 8466ft 342kts
15-Nov-16 22:53 36.387444 -114.627268 78 7548ft 308kts
15-Nov-16 22:54 36.445280 -114.589612 302 7184ft 292kts
15-Nov-16 22:55 36.486065 -114.675669 269 6415ft 293kts
15-Nov-16 22:56 36.457827 -114.765003 243 5958ft 270kts
15-Nov-16 22:57 36.414713 -114.838702 222 5588ft 265kts
15-Nov-16 22:58 36.359229 -114.898604 220 5168ft 260kts
15-Nov-16 22:59 36.303191 -114.957609 221 3799ft 256kts
15-Nov-16 23:00 36.250515 -115.016264 221 2655ft 252kts
15-Nov-16 23:01 36.236052 -114.999232 41 2693ft 213kts
15-Nov-16 23:02 36.242028 -115.025731 220 1859ft 131kts
15-Nov-16 23:03 36.224904 -115.043679 159 1848ft 20kts
15-Nov-16 23:04 36.223616 -115.042941 38 1848ft 0kts
15-Nov-16 23:05 36.223618 -115.042454 201 1848ft 0kts
15-Nov-16 23:06 36.223618 -115.042454 201 1848ft 0kts
15-Nov-16 23:07 36.223618 -115.042454 201 1847ft 0kts

Navigation Log

Ident Type
Flight plan parsing failed, navigation log unavailable